createdAt,value
2019-06-07T14:31:13.159Z,39.40
2019-06-07T14:34:07.954Z,36.30
2019-06-07T14:40:31.900Z,36.20
2019-06-07T14:43:27.571Z,36.00
2019-06-07T14:46:24.026Z,35.90
2019-06-07T14:49:18.506Z,35.70
2019-06-07T14:52:15.323Z,35.50
2019-06-07T14:55:11.653Z,35.50
2019-06-07T14:58:08.315Z,34.90
2019-06-07T15:01:02.490Z,35.10
2019-06-07T15:03:58.551Z,35.00
2019-06-07T15:06:53.476Z,35.30
2019-06-07T15:09:48.770Z,35.40
2019-06-07T15:12:43.444Z,35.40
2019-06-07T15:15:38.976Z,35.60
2019-06-07T15:18:33.954Z,35.60
2019-06-07T15:21:32.943Z,35.70
2019-06-07T15:24:26.089Z,35.80
2019-06-07T15:27:20.621Z,35.90
2019-06-07T15:30:15.793Z,36.00
2019-06-07T15:33:10.573Z,36.00
2019-06-07T15:36:06.715Z,36.00
2019-06-07T15:39:01.851Z,36.00
2019-06-07T15:41:58.611Z,36.20
2019-06-07T15:44:55.883Z,36.30
2019-06-07T15:47:50.442Z,36.60
2019-06-07T15:50:50.222Z,36.90
2019-06-07T15:53:44.979Z,37.00
2019-06-07T15:56:41.782Z,37.10
2019-06-07T15:59:37.417Z,37.20
2019-06-07T16:02:33.466Z,37.30
2019-06-07T16:05:28.976Z,37.20
2019-06-07T16:08:23.513Z,37.20
2019-06-07T16:11:18.555Z,37.20
2019-06-07T16:14:14.854Z,37.20
2019-06-07T16:17:10.528Z,37.10
2019-06-07T16:20:05.180Z,37.00
2019-06-07T16:23:00.425Z,37.00
2019-06-07T16:25:54.997Z,37.30
2019-06-07T16:28:51.168Z,37.70
2019-06-07T16:31:46.119Z,38.60
2019-06-07T16:34:41.847Z,39.70
2019-06-07T16:37:38.163Z,40.60
2019-06-07T16:40:34.250Z,41.40
2019-06-07T16:43:28.952Z,41.90
2019-06-07T16:46:24.990Z,42.30
2019-06-07T16:49:19.500Z,42.60
2019-06-07T16:52:13.460Z,42.70
2019-06-07T16:55:08.336Z,42.90
2019-06-07T16:58:02.834Z,43.10
2019-06-07T17:00:59.075Z,43.30
2019-06-07T17:03:53.709Z,43.50
2019-06-07T17:06:48.290Z,43.60
2019-06-07T17:09:45.286Z,43.80
2019-06-07T17:12:38.676Z,44.00
2019-06-07T17:15:32.906Z,44.20
2019-06-07T17:18:27.599Z,44.40
2019-06-07T17:21:21.806Z,44.60
2019-06-07T17:24:16.337Z,44.70
2019-06-07T17:27:11.146Z,44.80
2019-06-07T17:30:06.102Z,44.80
2019-06-07T17:33:00.333Z,44.80
2019-06-07T17:35:54.870Z,44.80
2019-06-07T17:38:48.948Z,44.80
2019-06-07T17:41:54.817Z,44.80
2019-06-07T17:44:38.880Z,44.80
2019-06-07T17:47:33.253Z,44.70
2019-06-07T17:50:29.407Z,44.80
2019-06-07T17:53:24.349Z,44.70
2019-06-07T17:56:19.503Z,44.60
2019-06-07T17:59:13.839Z,44.50
2019-06-07T18:02:14.691Z,44.40
2019-06-07T18:05:03.747Z,44.50
2019-06-07T18:07:59.474Z,44.50
2019-06-07T18:10:54.142Z,44.50
2019-06-07T18:14:05.095Z,44.40
2019-06-07T18:16:44.564Z,44.40
2019-06-07T18:19:38.714Z,44.40
2019-06-07T18:22:32.790Z,44.30
2019-06-07T18:25:28.168Z,44.20
2019-06-07T18:28:22.567Z,44.30
2019-06-07T18:31:17.171Z,44.30
2019-06-07T18:34:11.224Z,44.30
2019-06-07T18:37:05.350Z,44.20
2019-06-07T18:40:00.943Z,44.20
2019-06-07T18:42:55.647Z,44.30
2019-06-07T18:45:51.061Z,44.30
2019-06-07T18:48:46.419Z,44.40
2019-06-07T18:51:41.984Z,44.40
2019-06-07T18:54:36.167Z,44.30
2019-06-07T18:57:30.569Z,44.50
2019-06-07T19:00:27.052Z,44.60
2019-06-07T19:03:21.432Z,45.20
2019-06-07T19:06:15.654Z,44.80
2019-06-07T19:09:10.650Z,45.00
2019-06-07T19:12:05.138Z,45.10
2019-06-07T19:14:59.724Z,45.30
2019-06-07T19:17:54.167Z,45.40
2019-06-07T19:20:50.507Z,45.40
2019-06-07T19:23:45.414Z,45.50
2019-06-07T19:26:39.593Z,45.60
2019-06-07T19:29:34.836Z,45.70
2019-06-07T19:32:30.316Z,45.80
2019-06-07T19:35:24.926Z,45.90
2019-06-07T19:38:19.242Z,46.00
2019-06-07T19:41:19.570Z,46.20
2019-06-07T19:44:09.164Z,46.30
2019-06-07T19:47:03.370Z,46.40
2019-06-07T19:49:58.868Z,46.50
2019-06-07T19:52:54.918Z,46.60
2019-06-07T19:55:49.518Z,46.70
2019-06-07T19:58:46.167Z,46.80
2019-06-07T20:01:40.517Z,47.00
2019-06-07T20:04:34.827Z,47.00
2019-06-07T20:07:30.190Z,47.50
2019-06-07T20:10:24.598Z,47.30
2019-06-07T20:13:19.232Z,47.50
2019-06-07T20:16:15.285Z,47.80
2019-06-07T20:19:09.744Z,48.00
2019-06-07T20:22:05.495Z,48.40
2019-06-07T20:25:01.482Z,48.60
2019-06-07T20:27:57.495Z,48.70
2019-06-07T20:30:52.333Z,48.80
2019-06-07T20:33:47.673Z,48.90
2019-06-07T20:36:45.874Z,49.60
2019-06-07T20:39:41.017Z,48.90
2019-06-07T20:42:35.593Z,48.90
2019-06-07T20:45:33.689Z,49.00
2019-06-07T20:48:26.120Z,49.10
2019-06-07T20:51:20.323Z,49.20
2019-06-07T20:54:16.060Z,49.20
2019-06-07T20:57:11.422Z,48.80
2019-06-07T21:00:14.167Z,49.30
2019-06-07T21:03:05.306Z,49.40
2019-06-07T21:06:01.553Z,49.40
2019-06-07T21:08:57.465Z,49.40
2019-06-07T21:11:51.627Z,49.50
2019-06-07T21:14:45.895Z,49.50
2019-06-07T21:17:40.584Z,49.50
2019-06-07T21:20:37.386Z,49.40
2019-06-07T21:23:31.920Z,49.30
2019-06-07T21:26:26.016Z,49.30
2019-06-07T21:29:21.934Z,49.30
2019-06-07T21:32:17.479Z,49.40
2019-06-07T21:35:12.693Z,49.30
2019-06-07T21:38:07.861Z,49.40
2019-06-07T21:41:02.249Z,49.40
2019-06-07T21:43:56.627Z,49.40
2019-06-07T21:46:50.920Z,49.20
2019-06-07T21:49:45.339Z,49.20
2019-06-07T21:52:39.770Z,49.20
2019-06-07T21:55:34.024Z,49.10
2019-06-07T21:58:28.369Z,49.00
2019-06-07T22:01:29.746Z,49.00
2019-06-07T22:04:24.199Z,48.80
2019-06-07T22:07:18.510Z,48.70
2019-06-07T22:10:12.636Z,48.60
2019-06-07T22:13:08.001Z,48.40
2019-06-07T22:16:04.069Z,48.40
2019-06-07T22:18:58.362Z,48.40
2019-06-07T22:22:02.297Z,48.30
2019-06-07T22:24:49.508Z,48.20
2019-06-07T22:27:44.010Z,48.00
2019-06-07T22:30:38.065Z,48.00
2019-06-07T22:33:32.345Z,48.10
2019-06-07T22:36:26.605Z,48.10
2019-06-07T22:39:20.846Z,48.10
2019-06-07T22:42:15.266Z,48.20
2019-06-07T22:45:10.869Z,48.20
2019-06-07T22:48:06.795Z,48.30
2019-06-07T22:51:02.208Z,48.40
2019-06-07T22:53:56.203Z,48.30
2019-06-07T22:57:03.865Z,48.40
2019-06-07T22:59:58.292Z,48.50
2019-06-07T23:02:52.589Z,48.60
2019-06-07T23:05:47.002Z,48.60
2019-06-07T23:08:41.096Z,48.70
2019-06-07T23:11:35.232Z,48.60
2019-06-07T23:14:29.336Z,48.60
2019-06-07T23:17:23.771Z,48.70
2019-06-07T23:20:18.123Z,48.80
2019-06-07T23:23:12.492Z,49.00
2019-06-07T23:26:06.855Z,49.10
2019-06-07T23:29:00.985Z,49.10
2019-06-07T23:31:55.015Z,49.10
2019-06-07T23:34:50.194Z,49.20
2019-06-07T23:37:46.089Z,49.30
2019-06-07T23:40:40.283Z,49.30
2019-06-07T23:43:34.643Z,49.30
2019-06-07T23:46:28.779Z,49.40
2019-06-07T23:49:22.824Z,49.60
2019-06-07T23:52:17.841Z,49.60
2019-06-07T23:55:13.768Z,49.70
2019-06-07T23:58:08.404Z,49.70
